Time;durP1;ratioP1;P1;durP2;ratioP2;P2;SDS_P1;SDS_P2;PMS_P1;PMS_P2;Temp;Humidity;BMP_temperature;BMP_pressure;BME280_temperature;BME280_humidity;BME280_pressure;Samples;Min_cycle;Max_cycle;Signal;HPM_P1;HPM_P2
2023/05/27 00:00:03;;;;;;;14.45;3.88;;;;;;;-142.75;100.00;78562.88;5027956;28;20040;-65
2023/05/27 00:02:29;;;;;;;20.35;4.18;;;;;;;-142.75;100.00;78562.88;5028582;28;20032;-65
2023/05/27 00:04:54;;;;;;;11.57;3.47;;;;;;;-142.75;100.00;78553.03;5028373;28;20100;-65
2023/05/27 00:07:19;;;;;;;13.82;3.65;;;;;;;-142.75;100.00;78568.78;5027968;28;20025;-65
2023/05/27 00:09:45;;;;;;;14.73;4.37;;;;;;;-142.75;100.00;78574.69;5027705;28;20040;-65
2023/05/27 00:12:10;;;;;;;20.60;4.57;;;;;;;-142.75;100.00;78562.88;5026371;28;20018;-65
2023/05/27 00:14:35;;;;;;;12.52;3.78;;;;;;;-142.75;100.00;78560.91;5028090;28;20029;-65
2023/05/27 00:17:01;;;;;;;9.32;3.65;;;;;;;-142.75;100.00;78568.78;5027803;28;20029;-64
2023/05/27 00:19:29;;;;;;;18.57;4.17;;;;;;;-142.75;100.00;78588.50;5027852;28;20446;-65
2023/05/27 00:21:55;;;;;;;10.95;3.58;;;;;;;-142.75;100.00;78582.59;5027612;28;20052;-65
2023/05/27 00:24:21;;;;;;;12.15;4.13;;;;;;;-142.75;100.00;78586.53;5027798;28;20021;-65
2023/05/27 00:26:46;;;;;;;17.30;3.90;;;;;;;-142.75;100.00;78582.59;5027789;28;20094;-65
2023/05/27 00:29:11;;;;;;;13.68;3.72;;;;;;;-142.75;100.00;78590.47;5027652;28;20029;-64
2023/05/27 00:31:36;;;;;;;10.80;3.50;;;;;;;-142.75;100.00;78576.66;5026117;28;20025;-65
2023/05/27 00:34:02;;;;;;;12.13;3.23;;;;;;;-142.75;100.00;78576.66;5027622;28;20026;-65
2023/05/27 00:36:27;;;;;;;20.60;3.70;;;;;;;-142.75;100.00;78570.75;5027818;28;20029;-65
2023/05/27 00:38:53;;;;;;;12.40;3.57;;;;;;;-142.75;100.00;78578.63;5027574;28;20025;-65
2023/05/27 00:41:19;;;;;;;19.13;4.03;;;;;;;-142.75;100.00;78584.56;5027033;28;20522;-65
2023/05/27 00:43:45;;;;;;;16.30;4.00;;;;;;;-142.75;100.00;78592.44;5027667;28;20021;-65
2023/05/27 00:46:10;;;;;;;15.20;3.47;;;;;;;-142.75;100.00;78602.28;5027442;28;21401;-65
2023/05/27 00:48:36;;;;;;;17.23;3.93;;;;;;;-142.75;100.00;78606.22;5027314;28;20025;-65
2023/05/27 00:51:02;;;;;;;13.00;3.83;;;;;;;-142.75;100.00;78592.44;5026762;28;20033;-64
2023/05/27 00:53:27;;;;;;;15.03;4.20;;;;;;;-142.75;100.00;78600.31;5027517;28;20481;-65
2023/05/27 00:55:54;;;;;;;14.60;3.37;;;;;;;-142.75;100.00;78600.31;5027110;28;20100;-65
2023/05/27 00:58:21;;;;;;;15.43;3.37;;;;;;;-142.75;100.00;78618.03;5027043;28;20033;-65
2023/05/27 01:00:47;;;;;;;15.73;3.63;;;;;;;-142.75;100.00;78621.97;5026543;28;20076;-65
2023/05/27 01:03:13;;;;;;;13.20;3.40;;;;;;;-142.75;100.00;78621.97;5025758;28;20025;-65
2023/05/27 01:05:39;;;;;;;9.30;3.10;;;;;;;-142.75;100.00;78618.03;5027072;28;20487;-65
2023/05/27 01:08:07;;;;;;;15.43;4.50;;;;;;;-142.75;100.00;78637.72;5026975;28;20487;-65
2023/05/27 01:10:53;;;;;;;13.23;3.43;;;;;;;-142.75;100.00;78620.00;5026594;28;20379;-65
2023/05/27 01:13:42;;;;;;;13.05;2.70;;;;;;;-142.75;100.00;78625.91;5025373;28;20395;-65
2023/05/27 01:16:16;;;;;;;10.53;3.30;;;;;;;-142.75;100.00;78620.00;5026526;28;20112;-65
2023/05/27 01:18:46;;;;;;;17.83;3.27;;;;;;;-142.75;100.00;78621.97;5026814;28;20032;-65
2023/05/27 01:21:14;;;;;;;11.80;2.80;;;;;;;-142.75;100.00;78629.84;5025153;28;20040;-65
2023/05/27 01:23:46;;;;;;;11.40;3.30;;;;;;;-142.75;100.00;78639.69;5026662;28;20021;-65
2023/05/27 01:26:11;;;;;;;11.37;3.07;;;;;;;-142.75;100.00;78649.53;5026623;28;20094;-65
2023/05/27 01:28:37;;;;;;;14.20;3.47;;;;;;;-142.75;100.00;78645.59;5026723;28;20029;-65
2023/05/27 01:31:13;;;;;;;13.27;2.93;;;;;;;-142.75;100.00;78637.72;5026140;28;20029;-65
2023/05/27 01:33:45;;;;;;;9.50;3.10;;;;;;;-142.75;100.00;78683.03;5026575;28;20481;-65
2023/05/27 01:36:15;;;;;;;15.23;3.50;;;;;;;-142.75;100.00;78649.53;5008637;28;20036;-65
2023/05/27 01:38:43;;;;;;;14.17;3.07;;;;;;;-142.75;100.00;78643.63;5026312;28;20036;-65
2023/05/27 01:41:09;;;;;;;16.53;3.20;;;;;;;-142.75;100.00;78659.38;5025906;28;20108;-65
2023/05/27 01:43:36;;;;;;;9.63;3.20;;;;;;;-142.75;100.00;78641.66;5026480;28;20026;-65
2023/05/27 01:46:02;;;;;;;14.40;3.50;;;;;;;-142.75;100.00;78645.59;5026350;28;20103;-64
2023/05/27 01:48:27;;;;;;;14.17;3.37;;;;;;;-142.75;100.00;78653.47;5026695;28;20025;-65
2023/05/27 01:50:52;;;;;;;10.60;3.00;;;;;;;-142.75;100.00;78657.41;5025815;28;20036;-65
2023/05/27 01:53:18;;;;;;;16.77;3.23;;;;;;;-142.75;100.00;78649.53;5026372;28;20486;-65
2023/05/27 01:55:43;;;;;;;10.87;3.03;;;;;;;-142.75;100.00;78651.50;5026239;28;20117;-65
2023/05/27 01:58:08;;;;;;;16.87;3.60;;;;;;;-142.75;100.00;78635.75;5026151;28;20041;-65
2023/05/27 02:00:34;;;;;;;9.00;3.00;;;;;;;-142.75;100.00;78625.91;5025774;28;20029;-65
2023/05/27 02:02:59;;;;;;;9.57;3.17;;;;;;;-142.75;100.00;78651.50;5026277;28;20038;-65
2023/05/27 02:05:24;;;;;;;11.43;3.17;;;;;;;-142.75;100.00;78639.69;5026240;28;20041;-65
2023/05/27 02:07:50;;;;;;;14.50;2.93;;;;;;;-142.75;100.00;78635.75;5026176;28;20029;-65
2023/05/27 02:10:15;;;;;;;13.30;3.17;;;;;;;-142.75;100.00;78637.72;5025812;28;20040;-65
2023/05/27 02:12:40;;;;;;;13.93;2.87;;;;;;;-142.75;100.00;78643.63;5029547;28;20025;-65
2023/05/27 02:15:07;;;;;;;12.67;2.70;;;;;;;-142.75;100.00;78659.38;5030063;28;20036;-65
2023/05/27 02:17:32;;;;;;;10.63;3.07;;;;;;;-142.75;100.00;78653.47;5030343;28;20025;-64
2023/05/27 02:19:58;;;;;;;11.03;3.53;;;;;;;-142.75;100.00;78645.59;5029974;28;20021;-65
2023/05/27 02:22:23;;;;;;;8.67;3.00;;;;;;;-142.75;100.00;78645.59;5029962;28;20033;-65
2023/05/27 02:24:48;;;;;;;14.50;3.50;;;;;;;-142.75;100.00;78653.47;5030074;28;20026;-65
2023/05/27 02:27:14;;;;;;;16.67;3.43;;;;;;;-142.75;100.00;78677.13;5029908;28;20064;-65
2023/05/27 02:29:41;;;;;;;18.03;3.77;;;;;;;-142.75;100.00;78677.13;5029599;28;20514;-65
2023/05/27 02:32:07;;;;;;;13.17;3.13;;;;;;;-142.75;100.00;78661.34;5029762;28;20090;-65
2023/05/27 02:34:36;;;;;;;9.33;3.10;;;;;;;-142.75;100.00;78663.31;5029830;28;20108;-64
2023/05/27 02:37:02;;;;;;;12.37;3.07;;;;;;;-142.75;100.00;78653.47;5028247;28;20037;-64
2023/05/27 02:39:28;;;;;;;12.23;3.07;;;;;;;-142.75;100.00;78657.41;5029677;28;20103;-65
2023/05/27 02:41:53;;;;;;;8.50;2.90;;;;;;;-142.75;100.00;78655.44;5029544;28;20083;-65
2023/05/27 02:44:18;;;;;;;10.33;3.63;;;;;;;-142.75;100.00;78669.25;5029502;28;20029;-65
2023/05/27 02:46:44;;;;;;;15.97;3.93;;;;;;;-142.75;100.00;78675.16;5029688;28;20478;-65
2023/05/27 02:49:09;;;;;;;14.37;3.33;;;;;;;-142.75;100.00;78661.34;5028061;28;20029;-65
2023/05/27 02:51:35;;;;;;;5.63;2.70;;;;;;;-142.75;100.00;78671.22;5029600;28;20303;-65
2023/05/27 02:54:00;;;;;;;13.40;4.10;;;;;;;-142.75;100.00;78681.06;5029650;28;20122;-65
2023/05/27 02:56:27;;;;;;;18.83;3.97;;;;;;;-142.75;100.00;78669.25;5028096;28;20029;-65
2023/05/27 02:58:53;;;;;;;14.30;3.40;;;;;;;-142.75;100.00;78675.16;5029197;28;20036;-65
2023/05/27 03:01:18;;;;;;;12.27;3.33;;;;;;;-142.75;100.00;78671.22;5029026;28;20021;-65
2023/05/27 03:03:43;;;;;;;9.60;3.07;;;;;;;-142.75;100.00;78683.03;5029317;28;20053;-65
2023/05/27 03:06:08;;;;;;;11.50;3.27;;;;;;;-142.75;100.00;78683.03;5027866;28;20021;-65
2023/05/27 03:08:36;;;;;;;11.03;2.73;;;;;;;-142.75;100.00;78685.00;5029304;28;20025;-65
2023/05/27 03:11:03;;;;;;;14.67;3.77;;;;;;;-142.75;100.00;78679.09;5027393;28;20036;-65
2023/05/27 03:13:29;;;;;;;10.07;3.03;;;;;;;-142.75;100.00;78688.94;5029233;28;20037;-65
2023/05/27 03:15:54;;;;;;;14.33;3.63;;;;;;;-142.75;100.00;78685.00;5028859;28;20029;-65
2023/05/27 03:18:20;;;;;;;9.33;2.83;;;;;;;-142.75;100.00;78685.00;5029006;28;20029;-65
2023/05/27 03:20:46;;;;;;;9.13;3.07;;;;;;;-142.75;100.00;78685.00;5028763;28;20057;-65
2023/05/27 03:23:11;;;;;;;12.03;3.70;;;;;;;-142.75;100.00;78681.06;5027501;28;20661;-64
2023/05/27 03:25:36;;;;;;;20.80;3.73;;;;;;;-142.75;100.00;78681.06;5029238;28;20482;-65
2023/05/27 03:28:04;;;;;;;8.70;3.27;;;;;;;-142.75;100.00;78683.03;5028782;28;20033;-65
2023/05/27 03:30:30;;;;;;;11.37;3.50;;;;;;;-142.75;100.00;78685.00;5027520;28;20171;-65
2023/05/27 03:32:55;;;;;;;13.97;3.13;;;;;;;-142.75;100.00;78692.88;5028755;28;20100;-65
2023/05/27 03:35:20;;;;;;;9.57;3.50;;;;;;;-142.75;100.00;78696.81;5028738;28;20034;-64
2023/05/27 03:37:45;;;;;;;13.63;3.30;;;;;;;-142.75;100.00;78700.75;5028815;28;20049;-65
2023/05/27 03:40:11;;;;;;;11.60;2.87;;;;;;;-142.75;100.00;78677.13;5028167;28;20056;-65
2023/05/27 03:42:36;;;;;;;16.33;3.57;;;;;;;-142.75;100.00;78681.06;5028606;28;20056;-65
2023/05/27 03:45:02;;;;;;;11.23;3.40;;;;;;;-142.75;100.00;78683.03;5028667;28;20033;-65
2023/05/27 03:47:27;;;;;;;9.70;2.90;;;;;;;-142.75;100.00;78692.88;5028761;28;20025;-65
2023/05/27 03:49:53;;;;;;;21.00;3.80;;;;;;;-142.75;100.00;78692.88;5028210;28;20052;-65
2023/05/27 03:52:18;;;;;;;12.57;3.07;;;;;;;-142.75;100.00;78700.75;5028382;28;20090;-65
2023/05/27 03:54:44;;;;;;;12.23;3.30;;;;;;;-142.75;100.00;78692.88;5028491;28;20068;-64
2023/05/27 03:57:09;;;;;;;9.13;3.00;;;;;;;-142.75;100.00;78694.84;5026888;28;20021;-65
2023/05/27 03:59:36;;;;;;;11.60;3.17;;;;;;;-142.75;100.00;78683.03;5028213;28;20150;-64
2023/05/27 04:02:01;;;;;;;10.07;3.67;;;;;;;-142.75;100.00;78683.03;5028199;28;20104;-64
2023/05/27 04:04:27;;;;;;;10.43;3.23;;;;;;;-142.75;100.00;78686.97;5028353;28;20408;-65
2023/05/27 04:06:53;;;;;;;11.37;2.90;;;;;;;-142.75;100.00;78692.88;5028207;28;20402;-65
2023/05/27 04:09:18;;;;;;;11.77;3.03;;;;;;;-142.75;100.00;78694.84;5027827;28;20036;-64
2023/05/27 04:11:44;;;;;;;13.00;3.30;;;;;;;-142.75;100.00;78669.25;5010168;28;20021;-64
2023/05/27 04:14:09;;;;;;;13.17;3.37;;;;;;;-142.75;100.00;78669.25;5026677;28;20041;-65
2023/05/27 04:16:35;;;;;;;14.63;3.30;;;;;;;-142.75;100.00;78661.34;5027957;28;20096;-65
2023/05/27 04:19:01;;;;;;;10.50;2.73;;;;;;;-142.75;100.00;78671.22;5028093;28;20037;-65
2023/05/27 04:21:26;;;;;;;15.20;3.60;;;;;;;-142.75;100.00;78651.50;5027484;28;20021;-65
2023/05/27 04:23:52;;;;;;;11.87;2.80;;;;;;;-142.75;100.00;78643.63;5027937;28;20037;-65
2023/05/27 04:26:18;;;;;;;9.73;3.60;;;;;;;-142.75;100.00;78631.81;5027572;28;20510;-65
2023/05/27 04:28:45;;;;;;;17.07;3.63;;;;;;;-142.75;100.00;78653.47;5027978;28;20029;-65
2023/05/27 04:31:12;;;;;;;12.53;3.37;;;;;;;-142.75;100.00;78653.47;5027053;28;20025;-65
2023/05/27 04:33:44;;;;;;;15.60;3.50;;;;;;;-142.75;100.00;78633.78;5026071;28;20025;-65
2023/05/27 04:36:10;;;;;;;13.40;3.10;;;;;;;-142.75;100.00;78621.97;5027605;28;20033;-65
2023/05/27 04:38:36;;;;;;;15.83;3.83;;;;;;;-142.75;100.00;78623.94;5009661;28;20053;-65
2023/05/27 04:41:02;;;;;;;14.23;3.47;;;;;;;-142.75;100.00;78635.75;5027356;28;20072;-65
2023/05/27 04:43:29;;;;;;;18.23;4.03;;;;;;;-142.75;100.00;78618.03;5027354;28;20045;-65
2023/05/27 04:45:55;;;;;;;16.87;3.13;;;;;;;-142.75;100.00;78602.28;5027588;28;20029;-65
2023/05/27 04:48:23;;;;;;;11.67;2.93;;;;;;;-142.75;100.00;78586.53;5025925;28;20399;-65
2023/05/27 04:50:48;;;;;;;10.23;2.97;;;;;;;-142.75;100.00;78576.66;5027318;28;20025;-65
2023/05/27 04:53:15;;;;;;;14.87;3.27;;;;;;;-142.75;100.00;78558.94;5027181;28;20108;-65
2023/05/27 04:55:41;;;;;;;14.07;3.63;;;;;;;-142.75;100.00;78558.94;5025929;28;20037;-65
2023/05/27 04:58:06;;;;;;;12.93;3.30;;;;;;;-142.75;100.00;78527.44;5027383;28;20029;-65
2023/05/27 05:00:38;;;;;;;9.77;3.37;;;;;;;-142.75;100.00;78511.69;5026873;28;20025;-65
2023/05/27 05:03:04;;;;;;;13.03;3.57;;;;;;;-142.75;100.00;78519.56;5022583;28;20064;-64
2023/05/27 05:05:30;;;;;;;15.93;3.67;;;;;;;-142.75;100.00;78519.56;5027196;28;20031;-65
2023/05/27 05:07:55;;;;;;;11.87;3.10;;;;;;;-142.75;100.00;78519.56;5026855;28;20025;-65
2023/05/27 05:10:21;;;;;;;11.83;3.00;;;;;;;-142.75;100.00;78503.81;5026329;28;20029;-65
2023/05/27 05:12:46;;;;;;;15.03;2.90;;;;;;;-142.75;100.00;78491.97;5027072;28;20048;-65
2023/05/27 05:15:12;;;;;;;13.90;3.33;;;;;;;-142.75;100.00;78474.25;5026687;28;20029;-65
2023/05/27 05:17:37;;;;;;;14.13;3.50;;;;;;;-142.75;100.00;78484.09;5026874;28;20029;-64
2023/05/27 05:20:03;;;;;;;13.57;3.77;;;;;;;-142.75;100.00;78460.47;5026557;28;20039;-65
2023/05/27 05:22:29;;;;;;;11.27;3.30;;;;;;;-142.75;100.00;78450.63;5026719;28;20056;-65
2023/05/27 05:24:56;;;;;;;12.70;3.40;;;;;;;-142.75;100.00;78421.09;5026887;28;20036;-65
2023/05/27 05:27:23;;;;;;;16.60;4.20;;;;;;;-142.75;100.00;78440.78;5026544;28;20056;-65
2023/05/27 05:29:48;;;;;;;13.48;3.80;;;;;;;-142.75;100.00;78425.03;5026277;28;20033;-65
2023/05/27 05:32:14;;;;;;;12.80;3.22;;;;;;;-142.75;100.00;78399.44;5026479;28;20075;-65
2023/05/27 05:34:39;;;;;;;13.82;3.47;;;;;;;-142.75;100.00;78434.88;5027330;28;20030;-64
2023/05/27 05:37:06;;;;;;;12.15;2.83;;;;;;;-142.75;100.00;78409.28;5026532;28;20090;-64
2023/05/27 05:39:31;;;;;;;13.73;3.22;;;;;;;-142.75;100.00;78383.66;5026498;28;20048;-65
2023/05/27 05:41:57;;;;;;;10.95;3.83;;;;;;;-142.75;100.00;78381.69;5026490;28;20478;-65
2023/05/27 05:44:23;;;;;;;13.95;3.67;;;;;;;-142.75;100.00;78373.81;5026233;28;20033;-65
2023/05/27 05:46:48;;;;;;;11.02;3.30;;;;;;;-142.75;100.00;78411.25;5007943;28;20171;-65
2023/05/27 05:49:14;;;;;;;9.10;2.90;;;;;;;-142.75;100.00;78385.63;5025754;28;20033;-65
2023/05/27 05:51:39;;;;;;;11.43;3.07;;;;;;;-142.75;100.00;78354.13;5026113;28;20029;-65
2023/05/27 05:54:05;;;;;;;11.00;3.28;;;;;;;-142.75;100.00;78354.13;5026328;28;20037;-64
2023/05/27 05:56:31;;;;;;;11.95;3.55;;;;;;;-142.75;100.00;78365.94;5025088;28;20518;-65
2023/05/27 05:58:57;;;;;;;11.70;3.40;;;;;;;-142.75;100.00;78318.69;5008479;28;20025;-65
2023/05/27 06:01:22;;;;;;;11.52;3.00;;;;;;;-142.75;100.00;78293.06;5024034;28;20056;-65
2023/05/27 06:03:48;;;;;;;11.70;3.78;;;;;;;-142.75;100.00;78293.06;5026191;28;20670;-65
2023/05/27 06:06:14;;;;;;;15.95;3.38;;;;;;;-142.75;100.00;78273.38;5025933;28;20502;-65
2023/05/27 06:08:40;;;;;;;12.75;2.75;;;;;;;-142.75;100.00;78243.84;5024900;28;20025;-65
2023/05/27 06:11:05;;;;;;;12.20;2.95;;;;;;;-142.75;100.00;78232.03;5025692;28;20034;-64
2023/05/27 06:13:30;;;;;;;15.75;3.72;;;;;;;-142.75;100.00;78255.66;5025251;28;20476;-65
2023/05/27 06:15:56;;;;;;;14.90;3.22;;;;;;;-142.75;100.00;78208.41;5026178;28;20033;-65
2023/05/27 06:18:21;;;;;;;14.20;3.58;;;;;;;-142.75;100.00;78184.78;5025756;28;20025;-65
2023/05/27 06:20:47;;;;;;;21.05;3.45;;;;;;;-142.75;100.00;78180.81;5025678;28;20706;-65
2023/05/27 06:23:12;;;;;;;11.85;3.42;;;;;;;-142.75;100.00;78186.75;5024534;28;20033;-65
2023/05/27 06:25:37;;;;;;;10.65;3.50;;;;;;;-142.75;100.00;78196.59;5026128;28;20458;-65
2023/05/27 06:28:03;;;;;;;9.18;2.45;;;;;;;-142.75;100.00;78151.28;5026184;28;20032;-65
2023/05/27 06:30:28;;;;;;;7.70;2.78;;;;;;;-142.75;100.00;78141.44;5025608;28;20025;-65
2023/05/27 06:32:53;;;;;;;14.15;3.15;;;;;;;-142.75;100.00;78143.41;5026010;28;20026;-65
2023/05/27 06:35:19;;;;;;;13.35;2.90;;;;;;;-142.75;100.00;78123.72;5025780;28;20033;-65
2023/05/27 06:37:44;;;;;;;11.82;2.83;;;;;;;-142.75;100.00;78098.13;5025870;28;20037;-65
2023/05/27 06:40:10;;;;;;;10.70;2.90;;;;;;;-142.75;100.00;78076.47;5024132;28;20025;-65
2023/05/27 06:42:36;;;;;;;13.75;3.53;;;;;;;-142.75;100.00;78113.88;5025873;28;20063;-64
2023/05/27 06:45:02;;;;;;;13.07;3.13;;;;;;;-142.75;100.00;78088.28;5026322;28;20048;-65
2023/05/27 06:47:28;;;;;;;10.80;2.80;;;;;;;-142.75;100.00;78066.63;5025882;28;20104;-65
2023/05/27 06:49:53;;;;;;;12.65;3.05;;;;;;;-142.75;100.00;78033.13;5025355;28;20281;-65
2023/05/27 06:52:19;;;;;;;19.67;3.17;;;;;;;-142.75;100.00;78023.28;5007897;28;20116;-65
2023/05/27 06:54:45;;;;;;;14.18;3.40;;;;;;;-142.75;100.00;78031.16;5025779;28;20540;-65
2023/05/27 06:57:11;;;;;;;11.05;2.80;;;;;;;-142.75;100.00;78027.22;5026447;28;20100;-65
2023/05/27 06:59:36;;;;;;;11.38;2.63;;;;;;;-142.75;100.00;77997.69;5029153;28;20569;-65
2023/05/27 07:02:01;;;;;;;13.20;2.97;;;;;;;-142.75;100.00;78003.59;5029576;28;20087;-65
2023/05/27 07:04:27;;;;;;;9.73;2.60;;;;;;;-142.75;100.00;77966.19;5029094;28;20032;-65
2023/05/27 07:06:52;;;;;;;12.40;2.70;;;;;;;-142.75;100.00;77938.63;5029291;28;20444;-65
2023/05/27 07:09:18;;;;;;;13.20;3.33;;;;;;;-142.75;100.00;77930.75;5028907;28;20105;-65
2023/05/27 07:11:43;;;;;;;9.88;2.67;;;;;;;-142.75;100.00;77911.06;5029166;28;20053;-66
2023/05/27 07:14:11;;;;;;;14.40;3.25;;;;;;;-142.75;100.00;77887.41;5028875;28;20021;-65
2023/05/27 07:16:36;;;;;;;18.13;3.70;;;;;;;-142.75;100.00;77859.84;5028281;28;20025;-66
2023/05/27 07:19:02;;;;;;;15.18;3.60;;;;;;;-142.75;100.00;77920.91;5028886;28;20116;-65
2023/05/27 07:21:27;;;;;;;9.98;2.88;;;;;;;-142.75;100.00;77889.38;5026755;28;20025;-65
2023/05/27 07:23:52;;;;;;;11.00;3.03;;;;;;;-142.75;100.00;77907.09;5028512;28;20068;-65
2023/05/27 07:26:18;;;;;;;14.00;3.55;;;;;;;-142.75;100.00;77867.72;5026761;28;20025;-66
2023/05/27 07:28:44;;;;;;;17.17;3.35;;;;;;;-142.75;100.00;77814.56;5028780;28;20025;-65
2023/05/27 07:31:09;;;;;;;11.05;3.08;;;;;;;-142.75;100.00;77814.56;5028044;28;20057;-65
2023/05/27 07:33:35;;;;;;;14.05;3.28;;;;;;;-142.75;100.00;77796.84;5027805;28;20650;-65
2023/05/27 07:36:00;;;;;;;10.23;3.08;;;;;;;-142.75;100.00;77794.88;5028428;28;20472;-66
2023/05/27 07:38:25;;;;;;;13.38;3.25;;;;;;;-142.75;100.00;77826.38;5028075;28;20570;-66
2023/05/27 07:40:50;;;;;;;11.05;2.72;;;;;;;-142.75;100.00;77790.94;5027590;28;20032;-65
2023/05/27 07:43:16;;;;;;;10.68;2.90;;;;;;;-142.75;100.00;77751.56;5028012;28;20538;-65
2023/05/27 07:45:41;;;;;;;21.00;3.60;;;;;;;-142.75;100.00;77777.16;5028433;28;20035;-65
2023/05/27 07:48:06;;;;;;;14.63;3.53;;;;;;;-142.75;100.00;77735.81;5026170;28;20490;-65
2023/05/27 07:50:32;;;;;;;13.90;3.40;;;;;;;-142.75;100.00;77704.28;5027640;28;20041;-66
2023/05/27 07:52:57;;;;;;;13.30;3.20;;;;;;;-142.75;100.00;77708.22;5028237;28;20950;-66
2023/05/27 07:55:22;;;;;;;10.50;2.85;;;;;;;-142.75;100.00;77727.94;5028000;28;20470;-66
2023/05/27 07:57:48;;;;;;;12.82;3.10;;;;;;;-142.75;100.00;77690.50;5028434;28;20071;-65
2023/05/27 08:00:13;;;;;;;11.10;3.67;;;;;;;-142.75;100.00;77659.00;5027793;28;20091;-65
2023/05/27 08:02:39;;;;;;;10.13;2.72;;;;;;;-142.75;100.00;77645.22;5027568;28;20036;-65
2023/05/27 08:05:04;;;;;;;13.65;3.63;;;;;;;-142.75;100.00;77609.78;5028169;28;20104;-66
2023/05/27 08:07:30;;;;;;;14.65;3.15;;;;;;;-142.75;100.00;77574.34;5028136;28;20033;-66
2023/05/27 08:09:55;;;;;;;16.45;3.50;;;;;;;-142.75;100.00;77578.28;5026770;28;20609;-66
2023/05/27 08:12:21;;;;;;;12.30;3.03;;;;;;;-142.75;100.00;77546.78;5027551;28;20029;-63
2023/05/27 08:14:47;;;;;;;11.80;2.80;;;;;;;-142.75;100.00;77546.78;5027590;28;20427;-66
2023/05/27 08:17:13;;;;;;;19.25;3.22;;;;;;;-142.75;100.00;77550.72;5027346;28;20071;-65
2023/05/27 08:19:40;;;;;;;8.85;3.17;;;;;;;-142.75;100.00;77548.75;5026865;28;20406;-63
2023/05/27 08:22:08;;;;;;;13.30;3.15;;;;;;;-142.75;99.63;77519.22;5009591;28;20064;-64
2023/05/27 08:24:34;;;;;;;9.00;3.20;;;;;;;-142.75;100.00;77491.66;5027474;28;20429;-64
2023/05/27 08:27:00;;;;;;;14.57;3.38;;;;;;;-142.75;100.00;77464.09;5027741;28;20052;-64
2023/05/27 08:29:27;;;;;;;8.02;2.45;;;;;;;-142.75;100.00;77491.66;5027155;28;20063;-64
2023/05/27 08:31:53;;;;;;;9.38;3.00;;;;;;;-142.75;100.00;77452.25;5027217;28;20513;-66
2023/05/27 08:34:18;;;;;;;11.63;3.53;;;;;;;-142.75;100.00;77450.28;5009370;28;20021;-65
2023/05/27 08:36:43;;;;;;;12.07;2.63;;;;;;;-142.75;97.61;77460.13;5027648;28;20087;-66
2023/05/27 08:39:09;;;;;;;13.52;3.53;;;;;;;-142.75;95.31;77434.53;5027274;28;20082;-64
2023/05/27 08:41:35;;;;;;;11.80;2.92;;;;;;;-142.75;96.97;77446.34;5027119;28;20022;-66
2023/05/27 08:44:01;;;;;;;12.68;3.35;;;;;;;-142.75;96.11;77471.97;5027293;28;20029;-66
2023/05/27 08:46:27;;;;;;;18.27;3.88;;;;;;;-142.75;95.90;77401.06;5026365;28;20021;-65
2023/05/27 08:48:55;;;;;;;14.32;3.75;;;;;;;-142.75;96.12;77357.75;5025631;28;20476;-66
2023/05/27 08:51:20;;;;;;;9.18;3.53;;;;;;;-142.75;95.43;77357.75;5025266;28;20107;-65
2023/05/27 08:53:47;;;;;;;12.60;3.45;;;;;;;-142.75;90.04;77383.34;5025425;28;20117;-66
2023/05/27 08:56:15;;;;;;;15.18;3.13;;;;;;;-142.75;91.59;77361.69;5024902;28;20076;-65
2023/05/27 08:58:41;;;;;;;14.75;3.85;;;;;;;-142.75;90.29;77349.88;5024446;28;20063;-65
2023/05/27 09:01:08;;;;;;;11.73;3.13;;;;;;;-142.75;90.52;77347.91;5024756;28;20475;-65
2023/05/27 09:03:33;;;;;;;15.00;3.22;;;;;;;-142.75;90.99;77318.38;5026186;28;20140;-66
2023/05/27 09:06:01;;;;;;;15.48;3.80;;;;;;;-142.75;90.23;77280.97;5026491;28;20092;-66
2023/05/27 09:08:27;;;;;;;9.95;3.30;;;;;;;-142.75;87.94;77243.56;5026180;28;20025;-68
2023/05/27 09:10:52;;;;;;;13.30;3.38;;;;;;;-142.75;86.38;77261.28;5026379;28;20032;-67
2023/05/27 09:13:28;;;;;;;9.75;3.65;;;;;;;-142.75;90.57;77255.38;5026225;28;20100;-66
2023/05/27 09:16:01;;;;;;;15.73;4.07;;;;;;;-142.75;89.21;77259.31;5026233;28;20029;-66
2023/05/27 09:18:29;;;;;;;14.00;3.85;;;;;;;-142.75;84.51;77233.72;5026073;28;20033;-67
2023/05/27 09:20:55;;;;;;;12.00;3.67;;;;;;;-142.75;83.89;77210.09;5026151;28;20057;-64
2023/05/27 09:23:21;;;;;;;11.25;3.38;;;;;;;-142.75;84.78;77212.06;5026236;28;20017;-65
2023/05/27 09:25:46;;;;;;;17.35;3.75;;;;;;;-142.75;82.90;77212.06;5026362;28;20047;-65
2023/05/27 09:28:19;;;;;;;13.73;3.85;;;;;;;-142.75;84.24;77186.47;5025044;28;20469;-65
2023/05/27 09:30:44;;;;;;;13.02;3.85;;;;;;;-142.75;83.26;77168.75;5026132;28;20029;-65
2023/05/27 09:33:12;;;;;;;13.85;3.47;;;;;;;-142.75;82.72;77145.13;5026527;28;20021;-65
2023/05/27 09:35:39;;;;;;;15.93;3.88;;;;;;;-142.75;83.66;77164.81;5026700;28;20104;-65
2023/05/27 09:38:10;;;;;;;11.80;3.08;;;;;;;-142.75;83.39;77129.38;5025490;28;20057;-65
2023/05/27 09:40:37;;;;;;;14.55;3.63;;;;;;;-142.75;83.98;77097.88;5026197;28;20112;-65
2023/05/27 09:43:03;;;;;;;13.88;3.83;;;;;;;-142.75;84.03;77080.16;5025275;28;20124;-64
2023/05/27 09:45:28;;;;;;;16.60;4.05;;;;;;;-142.75;82.86;77086.06;5026265;28;20450;-65
2023/05/27 09:47:54;;;;;;;12.45;3.58;;;;;;;-142.75;83.26;77086.06;5026559;28;20025;-65
2023/05/27 09:50:21;;;;;;;14.30;3.50;;;;;;;-142.75;80.42;77042.75;5025857;28;20025;-65
2023/05/27 09:52:48;;;;;;;14.93;3.97;;;;;;;-142.75;82.68;77058.50;5025213;28;20079;-66
2023/05/27 09:55:16;;;;;;;11.80;3.88;;;;;;;-142.75;79.99;77048.66;5026063;28;20608;-66
2023/05/27 09:57:41;;;;;;;13.80;3.67;;;;;;;-142.75;78.58;77019.13;5025371;28;20026;-66
2023/05/27 10:00:11;;;;;;;13.60;4.25;;;;;;;-142.75;78.29;77003.38;5025889;28;20578;-64
2023/05/27 10:02:38;;;;;;;15.80;3.60;;;;;;;-142.75;79.15;77038.81;5025945;28;20037;-64
2023/05/27 10:05:09;;;;;;;11.88;3.63;;;;;;;-142.75;76.03;77027.00;5026368;28;20029;-65
2023/05/27 10:07:38;;;;;;;11.30;3.83;;;;;;;-142.75;79.40;77074.25;5026316;28;20041;-65
2023/05/27 10:10:14;;;;;;;9.27;4.00;;;;;;;-142.75;80.81;77050.63;5026060;28;20578;-65
2023/05/27 10:12:41;;;;;;;;;;;;;;;-142.75;80.74;77001.41;5026784;28;20025;-65
2023/05/27 10:15:07;;;;;;;14.73;4.22;;;;;;;-142.75;77.58;76950.22;5026063;28;20497;-64
2023/05/27 10:17:49;;;;;;;13.32;3.47;;;;;;;-142.75;77.12;76946.28;5026100;28;20037;-66
2023/05/27 10:20:32;;;;;;;12.80;4.35;;;;;;;-142.75;75.86;76918.72;5025631;28;20138;-66
2023/05/27 10:23:20;;;;;;;9.23;3.88;;;;;;;-142.75;74.50;76924.63;5025634;28;20021;-64
2023/05/27 10:25:48;;;;;;;11.48;4.15;;;;;;;-142.75;75.41;76912.81;5025565;28;20025;-65
2023/05/27 10:28:31;;;;;;;14.02;4.45;;;;;;;-142.75;75.43;76906.91;5025924;28;20496;-62
2023/05/27 10:31:04;;;;;;;15.43;4.05;;;;;;;-142.75;73.04;76910.84;5024802;28;20059;-64
2023/05/27 10:33:30;;;;;;;12.05;4.18;;;;;;;-142.75;74.32;76897.06;5028773;28;20430;-63
2023/05/27 10:36:02;;;;;;;9.73;3.72;;;;;;;-142.75;72.18;76889.19;5029559;28;20025;-64
2023/05/27 10:38:27;;;;;;;12.68;3.33;;;;;;;-142.75;71.78;76855.72;5029248;28;20064;-64
2023/05/27 10:41:03;;;;;;;9.35;3.58;;;;;;;-142.75;75.21;76853.75;5029206;28;20053;-63
2023/05/27 10:43:29;;;;;;;11.32;3.55;;;;;;;-142.75;75.24;76822.25;5011603;28;20048;-64
2023/05/27 10:46:08;;;;;;;18.70;4.00;;;;;;;-142.75;74.63;76804.53;5029725;28;20272;-64
2023/05/27 10:48:34;;;;;;;16.40;4.50;;;;;;;-142.75;75.15;76798.66;5029946;28;20108;-63
2023/05/27 10:51:02;;;;;;;11.23;3.50;;;;;;;-142.75;73.79;76794.69;5029387;28;20097;-66
2023/05/27 10:53:29;;;;;;;10.50;3.67;;;;;;;-142.75;73.44;76780.94;5029438;28;20025;-63
2023/05/27 10:55:58;;;;;;;14.43;3.72;;;;;;;-142.75;74.61;76737.63;5028308;28;20494;-63
2023/05/27 10:58:23;;;;;;;16.35;3.65;;;;;;;-142.75;69.23;76719.91;5029219;28;20151;-63
2023/05/27 11:00:52;;;;;;;10.80;4.20;;;;;;;-142.75;71.78;76725.81;5029163;28;20108;-63